YAMB

RAAF Base Amberley Airport

Australia
TAF AMD YAMB 181006Z 1810/1906 25008KT CAVOK FM182300 24015KT 9999 FEW045
Issued Valid From Valid To
Jun-18 @ 10:06 UTC
(3 hours ago)
Jun-18 @ 10:00 UTC
(3 hours ago)
Jun-19 @ 06:00 UTC
(in 17 hours)
Jun-18 @ 10:00 to Jun-18 @ 23:00
TAF AMD YAMB 181006Z 1810/1906 25008KT CAVOK
Wind Visibility Clouds Conditions
250° at 8 knots 10,000+ meters
  • No significant clouds
From Jun-18 @ 23:00 to Jun-19 @ 06:00
FM182300 24015KT 9999 FEW045
Wind Visibility Clouds
240° at 15 knots 10,000+ meters
  • Few at 4,500' AGL
TAF AMD YAMB 181006Z 1810/1906 25008KT CAVOK FM182300 24015KT 9999 FEW045
Issued Jun-18 @ 10:06 UTC
(3 hours ago)
Valid From Jun-18 @ 10:00 UTC
(3 hours ago)
Valid To Jun-19 @ 06:00 UTC
(in 17 hours)
Jun-18 @ 10:00 - Jun-18 @ 23:00
Wind Visibility
250° at 8 knots 10,000+ meters
Clouds
  • No significant clouds
Conditions
From Jun-18 @ 23:00 - Jun-19 @ 06:00
Wind Visibility
240° at 15 knots 10,000+ meters
Clouds
  • Few at 4,500' AGL